createdAt,value
2017-12-04T00:00:00.650Z,2.70
2017-12-04T00:02:28.897Z,2.70
2017-12-04T00:04:56.368Z,2.60
2017-12-04T00:07:23.837Z,2.70
2017-12-04T00:09:51.316Z,2.70
2017-12-04T00:12:19.553Z,2.80
2017-12-04T00:14:47.023Z,2.80
2017-12-04T00:17:14.549Z,2.60
2017-12-04T00:19:42.750Z,2.50
2017-12-04T00:22:10.240Z,2.50
2017-12-04T00:24:38.472Z,2.60
2017-12-04T00:27:05.947Z,2.60
2017-12-04T00:29:33.421Z,2.50
2017-12-04T00:32:00.896Z,2.50
2017-12-04T00:34:29.133Z,2.40
2017-12-04T00:36:56.616Z,2.40
2017-12-04T00:39:24.089Z,2.40
2017-12-04T00:41:52.323Z,2.60
2017-12-04T00:44:22.749Z,2.60
2017-12-04T00:46:50.224Z,2.60
2017-12-04T00:49:17.709Z,2.60
2017-12-04T00:51:45.949Z,2.40
2017-12-04T00:54:13.428Z,2.40
2017-12-04T00:56:41.668Z,2.50
2017-12-04T00:59:09.141Z,2.50
2017-12-04T01:01:36.607Z,2.50
2017-12-04T01:04:04.077Z,2.60
2017-12-04T01:06:32.315Z,2.60
2017-12-04T01:08:59.789Z,2.50
2017-12-04T01:11:27.272Z,2.60
2017-12-04T01:13:54.741Z,2.30
2017-12-04T01:16:22.976Z,2.40
2017-12-04T01:18:50.440Z,2.40
2017-12-04T01:21:17.914Z,2.40
2017-12-04T01:23:45.385Z,2.50
2017-12-04T01:26:13.624Z,2.50
2017-12-04T01:28:41.097Z,2.50
2017-12-04T01:31:08.566Z,2.50
2017-12-04T01:33:36.843Z,2.50
2017-12-04T01:36:04.312Z,2.40
2017-12-04T01:38:33.294Z,2.50
2017-12-04T01:41:00.774Z,2.50
2017-12-04T01:43:29.015Z,2.70
2017-12-04T01:45:56.487Z,2.60
2017-12-04T01:48:23.961Z,2.70
2017-12-04T01:50:51.433Z,2.70
2017-12-04T01:53:19.669Z,2.70
2017-12-04T01:55:47.138Z,2.70
2017-12-04T01:58:14.609Z,2.70
2017-12-04T02:00:43.585Z,2.40
2017-12-04T02:03:11.061Z,2.40
2017-12-04T02:05:40.044Z,2.40
2017-12-04T02:08:07.520Z,2.40
2017-12-04T02:10:35.761Z,2.50
2017-12-04T02:13:03.231Z,2.40
2017-12-04T02:15:30.704Z,2.50
2017-12-04T02:17:58.172Z,2.30
2017-12-04T02:20:26.417Z,2.30
2017-12-04T02:22:53.893Z,2.20
2017-12-04T02:25:21.373Z,2.20
2017-12-04T02:27:49.649Z,2.40
2017-12-04T02:30:17.885Z,2.40
2017-12-04T02:32:45.357Z,2.40
2017-12-04T02:35:12.837Z,2.40
2017-12-04T02:37:41.823Z,2.30
2017-12-04T02:40:10.066Z,2.40
2017-12-04T02:42:37.537Z,2.40
2017-12-04T02:45:05.024Z,2.40
2017-12-04T02:47:33.266Z,2.50
2017-12-04T02:50:00.741Z,2.50
2017-12-04T02:52:28.217Z,2.50
2017-12-04T02:54:56.461Z,2.60
2017-12-04T02:57:23.929Z,2.50
2017-12-04T02:59:51.400Z,2.60
2017-12-04T03:02:19.641Z,2.40
2017-12-04T03:04:47.153Z,2.30
2017-12-04T03:07:15.393Z,2.30
2017-12-04T03:09:42.869Z,2.30
2017-12-04T03:12:10.353Z,2.40
2017-12-04T03:14:38.596Z,2.30
2017-12-04T03:17:06.077Z,2.20
2017-12-04T03:19:34.313Z,2.20
2017-12-04T03:22:01.786Z,2.10
2017-12-04T03:24:29.253Z,2.20
2017-12-04T03:26:56.724Z,2.20
2017-12-04T03:29:25.698Z,2.20
2017-12-04T03:31:53.169Z,2.30
2017-12-04T03:34:20.640Z,2.30
2017-12-04T03:36:48.108Z,2.30
2017-12-04T03:39:16.348Z,2.30
2017-12-04T03:41:43.821Z,2.20
2017-12-04T03:44:12.804Z,2.10
2017-12-04T03:46:41.061Z,2.30
2017-12-04T03:49:08.535Z,2.30
2017-12-04T03:51:36.008Z,2.30
2017-12-04T03:54:03.505Z,2.30
2017-12-04T03:56:31.741Z,2.30
2017-12-04T03:58:59.221Z,2.20
2017-12-04T04:01:27.457Z,2.30
2017-12-04T04:03:54.925Z,2.20
2017-12-04T04:06:22.405Z,2.20
2017-12-04T04:08:49.877Z,2.20
2017-12-04T04:11:18.121Z,2.10
2017-12-04T04:13:45.596Z,2.10
2017-12-04T04:16:14.580Z,2.00
2017-12-04T04:18:42.053Z,2.00
2017-12-04T04:21:09.525Z,2.10
2017-12-04T04:23:37.762Z,2.10
2017-12-04T04:26:05.236Z,2.10
2017-12-04T04:28:32.704Z,2.20
2017-12-04T04:31:00.181Z,2.10
2017-12-04T04:33:28.422Z,2.10
2017-12-04T04:35:55.909Z,2.00
2017-12-04T04:38:24.151Z,2.10
2017-12-04T04:40:51.634Z,2.10
2017-12-04T04:43:20.621Z,2.00
2017-12-04T04:45:48.101Z,2.00
2017-12-04T04:48:16.332Z,2.20
2017-12-04T04:50:43.826Z,2.10
2017-12-04T04:53:12.073Z,2.10
2017-12-04T04:55:39.544Z,2.00
2017-12-04T04:58:07.022Z,2.10
2017-12-04T05:00:34.489Z,2.00
2017-12-04T05:03:02.725Z,2.00
2017-12-04T05:05:30.213Z,2.00
2017-12-04T05:07:59.193Z,2.00
2017-12-04T05:10:26.665Z,2.00
2017-12-04T05:12:54.908Z,2.10
2017-12-04T05:15:22.381Z,2.10
2017-12-04T05:17:49.859Z,2.10
2017-12-04T05:20:18.108Z,2.00
2017-12-04T05:22:45.593Z,1.90
2017-12-04T05:25:13.832Z,2.00
2017-12-04T05:27:41.298Z,2.00
2017-12-04T05:30:08.774Z,2.00
2017-12-04T05:32:36.253Z,1.90
2017-12-04T05:35:04.497Z,1.90
2017-12-04T05:37:31.984Z,1.90
2017-12-04T05:39:59.460Z,1.90
2017-12-04T05:42:27.696Z,1.90
2017-12-04T05:44:55.181Z,1.80
2017-12-04T05:47:23.420Z,1.80
2017-12-04T05:49:50.955Z,1.80
2017-12-04T05:52:18.425Z,1.90
2017-12-04T05:54:45.904Z,1.90
2017-12-04T05:57:13.393Z,1.80
2017-12-04T05:59:41.633Z,1.80
2017-12-04T06:02:09.106Z,1.80
2017-12-04T06:04:36.580Z,1.90
2017-12-04T06:07:05.567Z,1.80
2017-12-04T06:09:33.805Z,1.80
2017-12-04T06:12:01.278Z,1.80
2017-12-04T06:14:28.765Z,1.70
2017-12-04T06:16:57.010Z,1.60
2017-12-04T06:19:24.481Z,1.50
2017-12-04T06:21:51.966Z,1.70
2017-12-04T06:24:20.206Z,1.80
2017-12-04T06:26:47.676Z,1.70
2017-12-04T06:29:15.149Z,1.80
2017-12-04T06:31:42.624Z,1.80
2017-12-04T06:34:10.866Z,1.70
2017-12-04T06:36:38.341Z,1.70
2017-12-04T06:39:05.819Z,1.70
2017-12-04T06:41:34.064Z,1.80
2017-12-04T06:44:01.545Z,1.70
2017-12-04T06:46:29.789Z,1.70
2017-12-04T06:48:57.281Z,1.70
2017-12-04T06:51:25.524Z,1.80
2017-12-04T06:53:52.996Z,1.70
2017-12-04T06:56:20.469Z,1.80
2017-12-04T06:58:47.937Z,1.80
2017-12-04T07:01:16.179Z,2.10
2017-12-04T07:03:43.653Z,2.10
2017-12-04T07:06:11.893Z,2.60
2017-12-04T07:08:39.409Z,2.60
2017-12-04T07:11:07.645Z,2.70
2017-12-04T07:13:35.118Z,2.60
2017-12-04T07:16:02.593Z,2.80
2017-12-04T07:18:30.065Z,2.60
2017-12-04T07:20:58.306Z,1.90
2017-12-04T07:23:25.836Z,1.80
2017-12-04T07:25:53.310Z,2.00
2017-12-04T07:28:20.809Z,2.10
2017-12-04T07:30:49.051Z,2.10
2017-12-04T07:33:16.517Z,2.10
2017-12-04T07:35:43.985Z,2.60
2017-12-04T07:38:11.461Z,3.20
2017-12-04T07:40:38.931Z,2.80
2017-12-04T07:43:07.169Z,2.50
2017-12-04T07:45:34.637Z,2.50
2017-12-04T07:48:02.112Z,2.40
2017-12-04T07:50:30.434Z,2.40
2017-12-04T07:52:57.921Z,2.30
2017-12-04T07:55:25.389Z,2.30
2017-12-04T07:57:52.857Z,2.30
2017-12-04T08:00:20.333Z,2.40
2017-12-04T08:02:48.573Z,2.40
2017-12-04T08:05:16.045Z,2.30
2017-12-04T08:07:43.516Z,2.30
2017-12-04T08:10:10.990Z,2.50
2017-12-04T08:12:39.225Z,2.70
2017-12-04T08:15:06.697Z,2.70
2017-12-04T08:17:34.168Z,2.80
2017-12-04T08:20:01.645Z,3.80
2017-12-04T08:22:29.881Z,3.30
2017-12-04T08:24:57.349Z,3.20
2017-12-04T08:27:24.822Z,3.10
2017-12-04T08:29:52.298Z,3.00
2017-12-04T08:32:20.537Z,3.20
2017-12-04T08:34:48.005Z,3.10
2017-12-04T08:37:16.985Z,3.30
2017-12-04T08:39:44.456Z,3.30
2017-12-04T08:42:11.929Z,3.20
2017-12-04T08:44:39.401Z,3.30
2017-12-04T08:47:07.642Z,3.40
2017-12-04T08:49:35.121Z,3.30
2017-12-04T08:52:02.593Z,3.30
2017-12-04T08:54:30.834Z,3.20
2017-12-04T08:56:58.301Z,3.20
2017-12-04T08:59:25.793Z,3.20
2017-12-04T09:01:54.037Z,3.20
2017-12-04T09:04:21.509Z,3.10
2017-12-04T09:06:48.981Z,3.30
2017-12-04T09:09:17.221Z,3.40
2017-12-04T09:11:44.692Z,3.30
2017-12-04T09:14:13.676Z,3.30
2017-12-04T09:16:41.144Z,3.30
2017-12-04T09:19:10.125Z,3.40
2017-12-04T09:21:37.593Z,3.40
2017-12-04T09:24:05.065Z,3.50
2017-12-04T09:26:32.536Z,3.60
2017-12-04T09:29:00.781Z,3.80
2017-12-04T09:31:28.261Z,3.80
2017-12-04T09:33:55.733Z,3.90
2017-12-04T09:36:23.969Z,3.90
2017-12-04T09:38:51.437Z,3.90
2017-12-04T09:41:18.912Z,4.00
2017-12-04T09:43:46.384Z,4.00
2017-12-04T09:46:14.629Z,4.40
2017-12-04T09:48:42.104Z,4.30
2017-12-04T09:51:09.577Z,4.40
2017-12-04T09:53:37.821Z,4.30
2017-12-04T09:56:05.293Z,4.30
2017-12-04T09:58:32.769Z,4.40
2017-12-04T10:01:01.005Z,4.50
2017-12-04T10:03:28.477Z,4.40
2017-12-04T10:05:55.949Z,4.40
2017-12-04T10:08:23.434Z,4.50
2017-12-04T10:10:50.910Z,4.70
2017-12-04T10:13:18.389Z,4.80
2017-12-04T10:15:45.857Z,4.80
2017-12-04T10:18:13.334Z,4.70
2017-12-04T10:20:42.324Z,4.70
2017-12-04T10:23:09.801Z,4.70
2017-12-04T10:25:37.286Z,4.80
2017-12-04T10:28:04.762Z,5.00
2017-12-04T10:30:32.327Z,5.00
2017-12-04T10:32:59.816Z,5.00
2017-12-04T10:35:27.285Z,5.30
2017-12-04T10:37:54.761Z,5.30
2017-12-04T10:40:23.006Z,5.30
2017-12-04T10:42:50.481Z,5.30
2017-12-04T10:45:17.953Z,6.20
2017-12-04T10:47:46.200Z,6.40
2017-12-04T10:50:13.682Z,6.30
2017-12-04T10:52:42.672Z,6.40
2017-12-04T10:55:10.140Z,6.40
2017-12-04T10:57:38.388Z,6.50
2017-12-04T11:00:05.864Z,6.50
2017-12-04T11:02:34.104Z,7.80
2017-12-04T11:05:01.576Z,7.70
2017-12-04T11:07:29.049Z,7.60
2017-12-04T11:09:56.528Z,7.50
2017-12-04T11:12:24.768Z,7.30
2017-12-04T11:14:52.241Z,7.20
2017-12-04T11:17:19.725Z,8.70
2017-12-04T11:19:47.969Z,10.00
2017-12-04T11:22:15.495Z,9.90
2017-12-04T11:24:42.972Z,9.40
2017-12-04T11:27:10.453Z,8.50
2017-12-04T11:29:37.930Z,7.60
2017-12-04T11:32:06.169Z,6.90
2017-12-04T11:34:33.636Z,6.80
2017-12-04T11:37:01.108Z,6.80
2017-12-04T11:39:28.580Z,6.80
2017-12-04T11:41:56.048Z,6.90
2017-12-04T11:44:24.287Z,6.90
2017-12-04T11:46:51.760Z,6.90
2017-12-04T11:49:19.233Z,7.00
2017-12-04T11:51:46.703Z,6.90
2017-12-04T11:54:14.938Z,6.90
2017-12-04T11:56:42.413Z,6.80
2017-12-04T11:59:09.885Z,6.90
2017-12-04T12:01:38.129Z,7.10
2017-12-04T12:04:05.605Z,7.00
2017-12-04T12:06:33.077Z,7.10
2017-12-04T12:09:01.322Z,7.20
2017-12-04T12:11:28.792Z,7.20
2017-12-04T12:13:56.257Z,7.20
2017-12-04T12:16:23.739Z,7.20
2017-12-04T12:18:51.973Z,7.50
2017-12-04T12:21:19.448Z,7.40
2017-12-04T12:23:46.916Z,7.40
2017-12-04T12:26:14.390Z,7.40
2017-12-04T12:28:42.629Z,7.50
2017-12-04T12:31:10.101Z,7.50
2017-12-04T12:33:37.577Z,7.50
2017-12-04T12:36:05.044Z,7.50
2017-12-04T12:38:33.278Z,7.40
2017-12-04T12:41:00.756Z,7.30
2017-12-04T12:43:28.237Z,7.50
2017-12-04T12:45:56.476Z,7.60
2017-12-04T12:48:23.955Z,7.50
2017-12-04T12:50:51.425Z,7.60
2017-12-04T12:53:19.669Z,7.60
2017-12-04T12:55:47.141Z,7.60
2017-12-04T12:58:14.612Z,7.60
2017-12-04T13:00:42.084Z,7.60
2017-12-04T13:03:10.325Z,7.50
2017-12-04T13:05:37.805Z,7.50
2017-12-04T13:08:05.272Z,7.60
2017-12-04T13:10:33.508Z,7.70
2017-12-04T13:13:00.978Z,7.70
2017-12-04T13:15:28.445Z,7.70
2017-12-04T13:17:55.920Z,7.70
2017-12-04T13:20:24.160Z,7.60
2017-12-04T13:22:51.633Z,7.60
2017-12-04T13:25:19.101Z,7.80
2017-12-04T13:27:46.614Z,7.80
2017-12-04T13:30:14.077Z,7.70
2017-12-04T13:32:53.440Z,7.80
2017-12-04T13:35:32.857Z,7.90
2017-12-04T13:38:00.337Z,7.90
2017-12-04T13:40:27.806Z,7.80
2017-12-04T13:42:55.287Z,7.80
2017-12-04T13:45:23.524Z,7.70
2017-12-04T13:47:51.061Z,7.70
2017-12-04T13:50:18.533Z,7.80
2017-12-04T13:52:46.007Z,7.80
2017-12-04T13:55:13.477Z,7.80
2017-12-04T13:57:40.950Z,7.80
2017-12-04T14:00:08.417Z,7.80
2017-12-04T14:02:36.661Z,7.80
2017-12-04T14:05:04.129Z,7.80
2017-12-04T14:07:31.603Z,7.80
2017-12-04T14:09:59.082Z,7.90
2017-12-04T14:12:27.319Z,7.90
2017-12-04T14:14:54.793Z,7.80
2017-12-04T14:17:22.264Z,8.10
2017-12-04T14:19:50.510Z,8.00
2017-12-04T14:22:17.981Z,8.00
2017-12-04T14:24:45.456Z,8.00
2017-12-04T14:27:13.697Z,8.00
2017-12-04T14:29:41.169Z,7.90
2017-12-04T14:32:08.644Z,8.00
2017-12-04T14:34:36.115Z,8.00
2017-12-04T14:37:04.348Z,8.00
2017-12-04T14:39:31.825Z,8.00
2017-12-04T14:41:59.296Z,8.00
2017-12-04T14:44:26.773Z,7.90
2017-12-04T14:46:55.224Z,7.90
2017-12-04T14:49:23.481Z,7.90
2017-12-04T14:51:50.951Z,7.80
2017-12-04T14:54:18.428Z,7.80
2017-12-04T14:56:45.900Z,7.80
2017-12-04T14:59:14.142Z,7.80
2017-12-04T15:01:41.616Z,7.70
2017-12-04T15:04:09.085Z,7.70
2017-12-04T15:06:36.552Z,7.80
2017-12-04T15:09:04.788Z,7.80
2017-12-04T15:11:32.266Z,7.80
2017-12-04T15:13:59.739Z,7.60
2017-12-04T15:16:27.979Z,7.60
2017-12-04T15:18:55.444Z,7.60
2017-12-04T15:21:22.917Z,7.60
2017-12-04T15:23:50.390Z,7.50
2017-12-04T15:26:17.856Z,7.50
2017-12-04T15:28:46.092Z,7.40
2017-12-04T15:31:13.570Z,7.40
2017-12-04T15:33:41.036Z,7.30
2017-12-04T15:36:08.544Z,7.20
2017-12-04T15:38:36.027Z,7.30
2017-12-04T15:41:03.496Z,7.30
2017-12-04T15:43:30.973Z,7.30
2017-12-04T15:45:58.441Z,7.20
2017-12-04T15:48:26.677Z,7.10
2017-12-04T15:50:54.144Z,7.00
2017-12-04T15:53:21.617Z,7.10
2017-12-04T15:55:49.090Z,7.20
2017-12-04T15:58:17.329Z,7.20
2017-12-04T16:00:44.804Z,7.20
2017-12-04T16:03:12.276Z,7.20
2017-12-04T16:05:39.745Z,7.20
2017-12-04T16:08:07.989Z,7.10
2017-12-04T16:10:35.456Z,7.00
2017-12-04T16:13:02.929Z,6.90
2017-12-04T16:15:30.410Z,6.90
2017-12-04T16:17:58.686Z,6.80
2017-12-04T16:20:26.930Z,6.70
2017-12-04T16:22:54.402Z,6.70
2017-12-04T16:25:21.873Z,6.80
2017-12-04T16:27:50.114Z,6.50
2017-12-04T16:30:17.594Z,6.40
2017-12-04T16:32:45.071Z,6.40
2017-12-04T16:35:13.318Z,6.30
2017-12-04T16:37:40.789Z,6.30
2017-12-04T16:40:08.269Z,6.30
2017-12-04T16:42:36.504Z,6.40
2017-12-04T16:45:03.977Z,6.40
2017-12-04T16:47:31.453Z,6.40
2017-12-04T16:49:59.689Z,6.30
2017-12-04T16:52:27.161Z,6.20
2017-12-04T16:54:56.146Z,6.00
2017-12-04T16:57:23.630Z,6.00
2017-12-04T16:59:51.099Z,6.10
2017-12-04T17:02:19.333Z,6.10
2017-12-04T17:04:46.805Z,6.00
2017-12-04T17:07:14.277Z,5.90
2017-12-04T17:09:42.524Z,6.00
2017-12-04T17:12:09.997Z,6.00
2017-12-04T17:14:37.472Z,5.90
2017-12-04T17:17:04.948Z,5.80
2017-12-04T17:19:33.189Z,5.80
2017-12-04T17:22:00.657Z,5.80
2017-12-04T17:24:28.129Z,5.80
2017-12-04T17:26:55.600Z,5.80
2017-12-04T17:29:23.833Z,5.80
2017-12-04T17:31:51.305Z,5.80
2017-12-04T17:34:18.777Z,5.90
2017-12-04T17:36:46.254Z,5.90
2017-12-04T17:39:14.492Z,5.70
2017-12-04T17:41:41.962Z,5.70
2017-12-04T17:44:09.440Z,5.60
2017-12-04T17:46:37.699Z,5.60
2017-12-04T17:49:05.229Z,5.50
2017-12-04T17:51:32.698Z,5.50
2017-12-04T17:54:00.173Z,5.60
2017-12-04T17:56:28.095Z,5.60
2017-12-04T17:58:55.566Z,5.60
2017-12-04T18:01:23.035Z,5.40
2017-12-04T18:03:50.501Z,5.40
2017-12-04T18:06:17.973Z,5.50
2017-12-04T18:08:45.447Z,5.30
2017-12-04T18:11:13.687Z,5.30
2017-12-04T18:13:41.157Z,5.30
2017-12-04T18:16:08.624Z,5.40
2017-12-04T18:18:36.097Z,5.40
2017-12-04T18:21:03.564Z,5.40
2017-12-04T18:23:31.832Z,5.30
2017-12-04T18:25:59.305Z,5.30
2017-12-04T18:28:27.549Z,5.20
2017-12-04T18:30:55.029Z,5.20
2017-12-04T18:33:22.503Z,5.10
2017-12-04T18:35:50.744Z,5.20
2017-12-04T18:38:18.222Z,5.10
2017-12-04T18:40:45.722Z,5.20
2017-12-04T18:43:13.192Z,5.20
2017-12-04T18:45:40.661Z,5.20
2017-12-04T18:48:08.137Z,5.10
2017-12-04T18:50:35.609Z,5.20
2017-12-04T18:53:03.081Z,5.20
2017-12-04T18:55:31.317Z,5.30
2017-12-04T18:57:58.793Z,5.20
2017-12-04T19:00:26.266Z,5.20
2017-12-04T19:02:53.733Z,5.10
2017-12-04T19:05:21.968Z,5.10
2017-12-04T19:07:49.439Z,5.00
2017-12-04T19:10:16.913Z,5.10
2017-12-04T19:12:44.384Z,5.20
2017-12-04T19:15:12.621Z,5.50
2017-12-04T19:17:40.101Z,5.40
2017-12-04T19:20:08.349Z,5.20
2017-12-04T19:22:35.877Z,5.10
2017-12-04T19:25:03.349Z,5.10
2017-12-04T19:27:30.820Z,5.10
2017-12-04T19:29:58.305Z,5.00
2017-12-04T19:32:25.772Z,5.10
2017-12-04T19:34:54.018Z,5.20
2017-12-04T19:37:21.484Z,5.20
2017-12-04T19:39:48.956Z,5.20
2017-12-04T19:42:16.432Z,5.20
2017-12-04T19:44:45.417Z,5.20
2017-12-04T19:47:12.890Z,5.20
2017-12-04T19:49:40.363Z,5.30
2017-12-04T19:52:08.600Z,5.30
2017-12-04T19:54:36.072Z,5.30
2017-12-04T19:57:03.540Z,5.30
2017-12-04T19:59:31.016Z,5.20
2017-12-04T20:01:59.253Z,5.20
2017-12-04T20:04:26.725Z,5.10
2017-12-04T20:06:54.192Z,5.20
2017-12-04T20:09:21.669Z,5.20
2017-12-04T20:11:49.913Z,5.10
2017-12-04T20:14:17.384Z,5.00
2017-12-04T20:16:44.853Z,5.10
2017-12-04T20:19:13.097Z,5.30
2017-12-04T20:21:40.565Z,5.20
2017-12-04T20:24:08.037Z,5.30
2017-12-04T20:26:35.513Z,5.20
2017-12-04T20:29:03.824Z,5.00
2017-12-04T20:31:31.586Z,5.00
2017-12-04T20:33:59.349Z,5.20
2017-12-04T20:36:26.827Z,5.20
2017-12-04T20:38:54.313Z,5.00
2017-12-04T20:41:21.784Z,4.90
2017-12-04T20:43:50.024Z,4.90
2017-12-04T20:46:17.501Z,4.90
2017-12-04T20:48:45.077Z,5.00
2017-12-04T20:51:12.601Z,5.10
2017-12-04T20:56:22.998Z,5.10
2017-12-04T20:58:50.520Z,5.00
2017-12-04T21:01:18.954Z,5.00
2017-12-04T21:03:46.747Z,5.00
2017-12-04T21:06:14.989Z,4.90
2017-12-04T21:08:56.046Z,4.90
2017-12-04T21:11:35.490Z,4.90
2017-12-04T21:14:14.901Z,4.80
2017-12-04T21:16:54.441Z,4.80
2017-12-04T21:19:21.913Z,4.90
2017-12-04T21:21:49.386Z,4.80
2017-12-04T21:24:16.873Z,4.80
2017-12-04T21:26:44.346Z,4.80
2017-12-04T21:29:12.965Z,4.60
2017-12-04T21:31:40.437Z,4.50
2017-12-04T21:34:07.918Z,4.60
2017-12-04T21:36:35.393Z,4.50
2017-12-04T21:39:02.870Z,4.50
2017-12-04T21:41:30.354Z,4.50
2017-12-04T21:44:02.710Z,4.60
2017-12-04T21:46:30.501Z,4.50
2017-12-04T21:48:58.053Z,4.50
2017-12-04T21:51:25.528Z,4.60
2017-12-04T21:53:53.333Z,4.50
2017-12-04T21:56:20.806Z,4.40
2017-12-04T21:58:49.369Z,4.60
2017-12-04T22:01:18.352Z,4.40
2017-12-04T22:03:45.821Z,4.40
2017-12-04T22:06:13.407Z,4.50
2017-12-04T22:08:41.859Z,4.50
2017-12-04T22:11:10.216Z,4.50
2017-12-04T22:13:37.732Z,4.40
2017-12-04T22:16:05.972Z,4.50
2017-12-04T22:18:33.441Z,4.40
2017-12-04T22:21:00.908Z,4.60
2017-12-04T22:23:28.377Z,4.50
2017-12-04T22:25:56.618Z,4.40
2017-12-04T22:28:24.092Z,4.30
2017-12-04T22:30:51.573Z,4.30
2017-12-04T22:33:19.862Z,4.20
2017-12-04T22:35:47.769Z,4.20
2017-12-04T22:38:15.464Z,4.30
2017-12-04T22:40:43.109Z,4.20
2017-12-04T22:43:10.798Z,4.30
2017-12-04T22:45:38.483Z,4.40
2017-12-04T22:48:06.001Z,4.30
2017-12-04T22:50:33.470Z,4.10
2017-12-04T22:53:01.705Z,4.20
2017-12-04T22:55:29.176Z,4.20
2017-12-04T22:57:56.897Z,4.30
2017-12-04T23:00:30.145Z,4.10
2017-12-04T23:02:58.397Z,4.10
2017-12-04T23:05:25.905Z,4.10
2017-12-04T23:07:54.153Z,4.10
2017-12-04T23:10:23.472Z,4.10
2017-12-04T23:12:51.709Z,4.10
2017-12-04T23:15:19.180Z,4.10
2017-12-04T23:17:46.650Z,4.10
2017-12-04T23:20:14.124Z,4.10
2017-12-04T23:22:41.592Z,4.10
2017-12-04T23:25:09.072Z,4.10
2017-12-04T23:27:37.313Z,4.10
2017-12-04T23:30:04.781Z,4.00
2017-12-04T23:32:33.765Z,3.90
2017-12-04T23:35:01.243Z,3.90
2017-12-04T23:37:29.494Z,4.10
2017-12-04T23:39:56.969Z,4.10
2017-12-04T23:42:25.081Z,4.00
2017-12-04T23:44:52.550Z,4.10
2017-12-04T23:47:20.029Z,4.10
2017-12-04T23:49:47.502Z,4.10
2017-12-04T23:52:14.968Z,4.00
2017-12-04T23:54:42.442Z,4.00
2017-12-04T23:57:10.686Z,4.00
2017-12-04T23:59:38.157Z,4.00
